Time;durP1;ratioP1;P1;durP2;ratioP2;P2;SDS_P1;SDS_P2;PMS_P1;PMS_P2;Temp;Humidity;BMP_temperature;BMP_pressure;BME280_temperature;BME280_humidity;BME280_pressure;Samples;Min_cycle;Max_cycle;Signal;HPM_P1;HPM_P2
2021/04/20 00:00:20;;;;;;;13.15;8.15;;;;;;;8.27;80.48;98567.44;1777601;81;21339;-81
2021/04/20 00:02:49;;;;;;;16.25;8.55;;;;;;;8.25;80.38;98558.86;1797279;80;21122;-81
2021/04/20 00:05:19;;;;;;;15.32;7.90;;;;;;;8.31;77.80;98563.88;1743137;80;21335;-82
2021/04/20 00:07:47;;;;;;;12.95;7.47;;;;;;;8.22;80.11;98566.27;1777541;79;21155;-88
2021/04/20 00:10:19;;;;;;;15.10;8.38;;;;;;;8.21;80.77;98563.70;1771948;81;21318;-81
2021/04/20 00:12:47;;;;;;;18.20;8.68;;;;;;;8.19;79.63;98562.44;1769378;79;21297;-81
2021/04/20 00:15:23;;;;;;;15.43;8.85;;;;;;;8.19;77.85;98561.14;1752448;80;21301;-82
2021/04/20 00:17:53;;;;;;;16.67;7.47;;;;;;;8.15;77.69;98563.40;1776720;79;21246;-81
2021/04/20 00:20:22;;;;;;;13.03;6.92;;;;;;;8.13;77.65;98558.70;1775623;80;21299;-83
2021/04/20 00:22:52;;;;;;;14.98;8.00;;;;;;;8.09;80.75;98559.22;1783811;80;21258;-82
2021/04/20 00:25:20;;;;;;;15.90;7.50;;;;;;;8.10;80.49;98560.09;1751967;81;21193;-84
2021/04/20 00:27:47;;;;;;;15.90;8.13;;;;;;;8.12;79.06;98559.16;1760977;81;21154;-84
2021/04/20 00:30:16;;;;;;;15.45;7.72;;;;;;;8.12;79.84;98559.61;1764657;80;21306;-81
2021/04/20 00:32:44;;;;;;;16.50;7.80;;;;;;;8.13;80.23;98553.08;1774127;79;21305;-82
2021/04/20 00:35:12;;;;;;;16.70;8.90;;;;;;;8.17;79.44;98555.16;1794234;79;21207;-83
2021/04/20 00:37:41;;;;;;;14.20;7.55;;;;;;;8.15;80.33;98556.48;1801443;80;21137;-82
2021/04/20 00:40:12;;;;;;;13.43;7.35;;;;;;;8.15;80.37;98547.41;1798722;80;21850;-82
2021/04/20 00:42:49;;;;;;;18.57;7.58;;;;;;;8.17;79.92;98549.97;1801295;80;21559;-82
2021/04/20 00:45:23;;;;;;;17.05;7.97;;;;;;;8.19;79.37;98549.49;1829764;78;21150;-81
2021/04/20 00:47:51;;;;;;;18.10;8.25;;;;;;;8.19;79.79;98549.49;1781225;78;21246;-81
2021/04/20 00:50:25;;;;;;;15.40;8.98;;;;;;;8.21;81.07;98549.46;1798125;78;21279;-83
2021/04/20 00:52:53;;;;;;;16.50;9.18;;;;;;;8.22;80.48;98551.18;1796591;80;21263;-82
2021/04/20 00:55:23;;;;;;;17.75;9.08;;;;;;;8.20;80.30;98546.45;1811785;78;21282;-82
2021/04/20 00:57:51;;;;;;;15.68;9.08;;;;;;;8.21;80.01;98546.88;1829079;78;21268;-81
2021/04/20 01:00:29;;;;;;;22.73;10.10;;;;;;;8.19;81.74;98554.67;1829148;78;21272;-81
2021/04/20 01:02:57;;;;;;;16.65;9.53;;;;;;;8.16;81.34;98551.72;1822122;78;21260;-83
2021/04/20 01:05:32;;;;;;;16.82;8.93;;;;;;;8.16;81.34;98546.54;1788010;79;21236;-83
2021/04/20 01:08:09;;;;;;;17.85;9.98;;;;;;;8.17;81.13;98546.93;1794058;79;21250;-81
2021/04/20 01:10:46;;;;;;;17.77;9.95;;;;;;;8.11;81.68;98543.65;1809990;79;21315;-82
2021/04/20 01:13:17;;;;;;;16.65;7.92;;;;;;;8.10;82.50;98543.26;1809786;79;21850;-82
2021/04/20 01:15:47;;;;;;;19.55;8.75;;;;;;;8.04;83.30;98544.25;1809930;79;21287;-82
2021/04/20 01:18:21;;;;;;;14.70;8.25;;;;;;;8.04;82.71;98544.25;1807726;79;21239;-82
2021/04/20 01:20:53;;;;;;;17.55;9.08;;;;;;;8.02;82.74;98542.14;1819236;78;21299;-83
2021/04/20 01:23:48;;;;;;;16.00;8.53;;;;;;;7.97;83.74;98536.21;1798123;78;21512;-83
2021/04/20 01:26:19;;;;;;;19.37;9.30;;;;;;;7.91;84.28;98539.78;1792334;80;22260;-81
2021/04/20 01:28:47;;;;;;;17.50;9.83;;;;;;;7.92;84.65;98537.63;1824829;78;21224;-81
2021/04/20 01:31:16;;;;;;;16.80;9.25;;;;;;;7.92;85.07;98534.19;1798645;78;21233;-82
2021/04/20 01:33:44;;;;;;;17.60;9.13;;;;;;;7.94;84.18;98533.71;1796564;80;21137;-83
2021/04/20 01:36:15;;;;;;;19.35;9.58;;;;;;;7.95;85.09;98536.69;1829963;78;21582;-83
2021/04/20 01:38:45;;;;;;;16.15;8.88;;;;;;;7.95;84.10;98535.39;1816172;78;21273;-82
2021/04/20 01:41:14;;;;;;;19.42;10.15;;;;;;;7.92;85.26;98531.60;1792360;80;21285;-84
2021/04/20 01:43:43;;;;;;;21.05;11.10;;;;;;;8.00;83.75;98532.69;1802449;79;21317;-82
2021/04/20 01:46:11;;;;;;;21.97;10.98;;;;;;;7.95;85.38;98536.69;1801613;79;21247;-84
2021/04/20 01:48:38;;;;;;;19.25;11.38;;;;;;;8.02;83.73;98539.97;1802432;78;21263;-83
2021/04/20 01:51:06;;;;;;;21.30;10.85;;;;;;;7.94;85.11;98541.48;1802747;80;21248;-82
2021/04/20 01:53:33;;;;;;;25.92;11.50;;;;;;;7.95;85.26;98540.13;1823498;78;21256;-81
2021/04/20 01:56:07;;;;;;;23.32;12.18;;;;;;;7.88;86.16;98539.88;1827196;78;21320;-83
2021/04/20 01:58:37;;;;;;;18.77;10.30;;;;;;;7.90;85.59;98538.55;1821414;75;21150;-83
2021/04/20 02:01:13;;;;;;;20.30;9.23;;;;;;;7.82;86.16;98541.73;1826727;78;21219;-83
2021/04/20 02:03:44;;;;;;;19.95;9.35;;;;;;;7.84;83.65;98535.66;1787785;80;21244;-83
2021/04/20 02:06:15;;;;;;;21.33;10.00;;;;;;;7.81;85.03;98536.16;1796416;80;21239;-83
2021/04/20 02:08:44;;;;;;;18.32;10.00;;;;;;;7.83;84.45;98543.45;1796581;80;21133;-83
2021/04/20 02:11:16;;;;;;;18.92;9.88;;;;;;;7.79;85.77;98536.64;1824413;78;21241;-84
2021/04/20 02:13:44;;;;;;;20.95;10.08;;;;;;;7.75;85.65;98535.86;1790785;79;21261;-84
2021/04/20 02:16:13;;;;;;;21.30;10.38;;;;;;;7.76;86.17;98535.83;1792930;79;21267;-83
2021/04/20 02:18:53;;;;;;;19.15;10.48;;;;;;;7.70;86.90;98532.09;1782224;79;21212;-82
2021/04/20 02:21:22;;;;;;;23.50;11.25;;;;;;;7.76;86.58;98536.28;1782801;79;21252;-81
2021/04/20 02:23:51;;;;;;;26.42;11.03;;;;;;;7.72;86.54;98535.94;1777374;81;21176;-84
2021/04/20 02:26:27;;;;;;;24.67;11.50;;;;;;;7.73;86.52;98532.45;1777568;80;21297;-84
2021/04/20 02:29:03;;;;;;;23.57;11.63;;;;;;;7.74;86.10;98529.84;1777410;78;21261;-83
2021/04/20 02:31:38;;;;;;;25.08;13.30;;;;;;;7.78;85.16;98538.39;1777677;80;21264;-83
2021/04/20 02:34:07;;;;;;;24.07;12.03;;;;;;;7.70;87.25;98532.09;1809250;77;21299;-84
2021/04/20 02:36:37;;;;;;;24.27;13.15;;;;;;;7.70;85.81;98537.27;1795707;77;21322;-84
2021/04/20 02:39:06;;;;;;;24.25;12.43;;;;;;;7.73;84.61;98539.77;1779722;79;21263;-83
2021/04/20 02:41:34;;;;;;;23.62;13.13;;;;;;;7.59;87.93;98528.88;1799093;79;21188;-83
2021/04/20 02:44:02;;;;;;;23.87;11.95;;;;;;;7.60;86.33;98539.65;1757969;78;21312;-83
2021/04/20 02:46:30;;;;;;;21.65;11.28;;;;;;;7.58;85.86;98532.37;1736652;79;21311;-85
2021/04/20 02:48:58;;;;;;;24.77;10.90;;;;;;;7.54;88.18;98535.88;1742576;79;21313;-87
2021/04/20 02:51:25;;;;;;;19.40;11.48;;;;;;;7.56;87.50;98540.61;1755619;82;21579;-86
2021/04/20 02:53:54;;;;;;;19.95;10.35;;;;;;;7.48;89.08;98534.30;1736048;81;21202;-88
2021/04/20 02:56:23;;;;;;;22.17;11.03;;;;;;;7.57;86.92;98535.83;1734670;79;21299;-89
2021/04/20 02:58:52;;;;;;;19.30;10.30;;;;;;;7.53;88.22;98532.89;1734409;80;21324;-87
2021/04/20 03:01:24;;;;;;;19.87;11.05;;;;;;;7.53;88.31;98533.73;1734570;80;21257;-82
2021/04/20 03:03:52;;;;;;;21.62;10.88;;;;;;;7.49;88.99;98530.81;1693015;83;21153;-82
2021/04/20 03:06:20;;;;;;;19.75;10.45;;;;;;;7.53;88.00;98534.19;1729655;82;22262;-81
2021/04/20 03:08:50;;;;;;;22.45;10.55;;;;;;;7.53;88.53;98534.19;1732188;80;21132;-85
2021/04/20 03:11:25;;;;;;;16.95;9.20;;;;;;;7.57;87.15;98526.77;1702823;81;21315;-88
2021/04/20 03:13:53;;;;;;;18.98;8.65;;;;;;;7.54;87.96;98530.28;1715133;81;21293;-82
2021/04/20 03:16:22;;;;;;;17.37;9.35;;;;;;;7.50;88.21;98531.23;1717467;81;21283;-85
2021/04/20 03:18:50;;;;;;;19.98;9.38;;;;;;;7.55;86.85;98529.83;1683028;83;21310;-83
2021/04/20 03:21:20;;;;;;;15.48;8.48;;;;;;;7.53;86.91;98534.19;1687976;84;21161;-84
2021/04/20 03:23:49;;;;;;;15.58;8.58;;;;;;;7.46;87.64;98530.02;1695494;84;21295;-84
2021/04/20 03:26:39;;;;;;;15.83;8.10;;;;;;;7.51;85.68;98530.34;1777034;78;21267;-87
2021/04/20 03:29:09;;;;;;;13.88;7.45;;;;;;;7.43;87.07;98533.98;1739866;78;21106;-89
2021/04/20 03:31:40;;;;;;;14.23;7.53;;;;;;;7.43;86.07;98536.12;1715216;83;21292;-83
2021/04/20 03:34:36;;;;;;;17.87;9.35;;;;;;;7.38;87.71;98540.52;1711771;82;21090;-85
2021/04/20 03:37:09;;;;;;;16.17;7.67;;;;;;;7.43;86.49;98540.45;1711016;83;21252;-82
2021/04/20 03:39:39;;;;;;;19.20;9.13;;;;;;;7.39;87.45;98534.48;1711947;83;21307;-83
2021/04/20 03:42:14;;;;;;;16.12;8.58;;;;;;;7.37;88.00;98534.95;1711648;83;21260;-84
2021/04/20 03:44:56;;;;;;;14.70;8.53;;;;;;;7.40;87.77;98540.50;1757805;80;21601;-85
2021/04/20 03:47:44;;;;;;;16.70;9.03;;;;;;;7.41;87.30;98544.35;1766467;81;21094;-84
2021/04/20 03:50:17;;;;;;;14.80;8.10;;;;;;;7.40;88.11;98547.84;1764984;81;21237;-85
2021/04/20 03:52:55;;;;;;;17.65;9.25;;;;;;;7.39;88.08;98544.83;1754561;80;21263;-84
2021/04/20 03:55:25;;;;;;;14.70;9.00;;;;;;;7.42;87.80;98553.83;1736257;81;21313;-85
2021/04/20 03:57:55;;;;;;;21.33;10.23;;;;;;;7.43;87.94;98543.88;1736250;81;21261;-84
2021/04/20 04:00:24;;;;;;;18.55;10.30;;;;;;;7.43;88.02;98554.67;1739355;80;21146;-84
2021/04/20 04:02:54;;;;;;;15.28;9.33;;;;;;;7.43;87.83;98548.20;1738876;83;21265;-84
2021/04/20 04:05:28;;;;;;;15.60;8.38;;;;;;;7.11;88.06;98507.06;1739361;83;21208;-83
2021/04/20 04:07:59;;;;;;;;;;;;;;;7.43;87.48;98553.37;1741080;80;21260;-82
2021/04/20 04:10:33;;;;;;;14.07;7.50;;;;;;;7.44;87.37;98550.77;1733670;80;20228;-84
2021/04/20 04:13:04;;;;;;;16.48;7.67;;;;;;;7.51;86.69;98555.36;1734169;81;21158;-84
2021/04/20 04:15:34;;;;;;;14.58;7.40;;;;;;;7.50;86.81;98558.39;1697310;82;21258;-82
2021/04/20 04:18:06;;;;;;;11.28;6.53;;;;;;;7.51;86.47;98560.53;1740743;79;21602;-89
2021/04/20 04:20:34;;;;;;;12.98;7.47;;;;;;;7.61;85.70;98562.03;1790649;80;21264;-83
2021/04/20 04:23:12;;;;;;;12.00;6.90;;;;;;;7.58;86.03;98564.70;1790225;80;21537;-83
2021/04/20 04:26:00;;;;;;;11.57;6.72;;;;;;;7.60;85.76;98562.94;1790427;78;21703;-84
2021/04/20 04:28:31;;;;;;;13.70;7.50;;;;;;;7.64;85.51;98564.98;1790379;80;21248;-83
2021/04/20 04:31:05;;;;;;;12.58;6.28;;;;;;;7.60;86.09;98564.23;1759134;82;21223;-84
2021/04/20 04:33:36;;;;;;;10.75;6.60;;;;;;;7.62;85.82;98567.63;1780610;78;21396;-83
2021/04/20 04:36:06;;;;;;;14.63;7.45;;;;;;;7.67;85.72;98567.52;1739848;80;21133;-84
2021/04/20 04:38:33;;;;;;;12.43;6.83;;;;;;;7.66;85.78;98564.51;1744120;78;21319;-88
2021/04/20 04:41:02;;;;;;;12.25;6.67;;;;;;;7.69;85.90;98562.71;1695742;83;21227;-85
2021/04/20 04:43:29;;;;;;;13.03;6.78;;;;;;;7.73;85.93;98568.23;1700031;83;21176;-87
2021/04/20 04:45:58;;;;;;;11.50;6.75;;;;;;;7.67;86.64;98561.05;1692587;83;22170;-89
2021/04/20 04:48:26;;;;;;;13.43;7.03;;;;;;;7.76;86.18;98556.98;1710444;79;21362;-85
2021/04/20 04:50:55;;;;;;;12.53;7.62;;;;;;;7.77;86.33;98567.72;1731790;79;21134;-81
2021/04/20 04:53:25;;;;;;;20.05;9.23;;;;;;;7.83;85.96;98564.16;1730866;82;21304;-83
2021/04/20 04:55:56;;;;;;;11.55;7.00;;;;;;;7.80;86.44;98569.38;1730324;83;21328;-81
2021/04/20 04:58:26;;;;;;;17.37;7.28;;;;;;;7.80;85.87;98571.55;1731946;83;21248;-84
2021/04/20 05:00:56;;;;;;;16.23;7.75;;;;;;;7.82;86.22;98572.78;1731522;83;21142;-83
2021/04/20 05:03:24;;;;;;;13.62;7.53;;;;;;;7.84;86.25;98572.31;1699624;83;21257;-82
2021/04/20 05:06:00;;;;;;;11.03;6.78;;;;;;;7.89;86.45;98576.50;1731173;82;21284;-82
2021/04/20 05:08:28;;;;;;;12.55;7.25;;;;;;;7.96;85.86;98583.70;1728630;82;21182;-81
2021/04/20 05:11:01;;;;;;;14.80;6.80;;;;;;;8.04;85.20;98584.37;1703894;82;21272;-82
2021/04/20 05:13:34;;;;;;;13.65;7.47;;;;;;;8.06;85.77;98582.60;1725223;80;21177;-82
2021/04/20 05:16:09;;;;;;;13.40;7.90;;;;;;;8.10;85.59;98581.64;1711714;82;21154;-82
2021/04/20 05:18:38;;;;;;;12.82;8.08;;;;;;;8.06;85.37;98572.25;1719729;82;21201;-85
2021/04/20 05:21:06;;;;;;;13.15;8.00;;;;;;;8.23;84.58;98585.23;1718921;82;21280;-81
2021/04/20 05:23:34;;;;;;;13.28;7.50;;;;;;;8.22;84.33;98590.02;1728770;83;21320;-80
2021/04/20 05:26:01;;;;;;;13.08;7.72;;;;;;;8.21;84.51;98588.30;1698475;83;21309;-81
2021/04/20 05:28:29;;;;;;;12.53;6.17;;;;;;;8.20;84.66;98590.47;1724092;83;21288;-81
2021/04/20 05:30:57;;;;;;;13.72;7.03;;;;;;;8.14;85.18;98592.34;1724705;82;21169;-81
2021/04/20 05:33:24;;;;;;;16.05;8.10;;;;;;;8.15;84.75;98588.84;1723778;82;21185;-80
2021/04/20 05:35:51;;;;;;;16.90;7.53;;;;;;;8.23;84.68;98582.64;1706300;83;21315;-80
2021/04/20 05:38:21;;;;;;;15.10;7.33;;;;;;;8.24;84.73;98586.50;1720571;83;21326;-80
2021/04/20 05:40:49;;;;;;;13.75;7.37;;;;;;;8.23;84.93;98584.78;1723243;82;21278;-81
2021/04/20 05:43:16;;;;;;;13.83;6.95;;;;;;;8.28;84.64;98585.53;1719562;83;21312;-80
2021/04/20 05:45:44;;;;;;;13.25;6.55;;;;;;;8.27;84.85;98590.30;1726982;83;21253;-81
2021/04/20 05:48:12;;;;;;;12.63;7.30;;;;;;;8.30;84.87;98591.98;1725817;82;21371;-79
2021/04/20 05:50:40;;;;;;;13.20;7.95;;;;;;;8.29;84.76;98589.81;1719096;82;21284;-81
2021/04/20 05:53:10;;;;;;;17.73;8.23;;;;;;;8.39;84.08;98592.19;1731570;82;21193;-81
2021/04/20 05:55:38;;;;;;;16.87;8.63;;;;;;;8.47;83.62;98589.84;1728152;82;21187;-80
2021/04/20 05:58:06;;;;;;;13.88;7.03;;;;;;;8.45;83.75;98593.37;1722578;82;21351;-79
2021/04/20 06:00:34;;;;;;;15.38;8.33;;;;;;;8.42;83.79;98600.78;1725428;81;21542;-81
2021/04/20 06:03:02;;;;;;;16.32;7.90;;;;;;;8.42;84.14;98597.34;1727334;81;21402;-79
2021/04/20 06:05:32;;;;;;;17.07;8.20;;;;;;;8.48;83.75;98594.60;1721020;82;21182;-81
2021/04/20 06:08:06;;;;;;;14.95;7.65;;;;;;;8.47;83.84;98596.77;1725245;82;21316;-81
2021/04/20 06:10:33;;;;;;;;;;;;;;;8.51;83.93;98596.65;1735193;82;21335;-79
2021/04/20 06:13:00;;;;;;;13.62;7.33;;;;;;;8.55;83.83;98600.02;1729092;81;20243;-79
2021/04/20 06:15:28;;;;;;;14.00;7.87;;;;;;;8.59;83.86;98595.62;1721413;81;21710;-81
2021/04/20 06:17:56;;;;;;;22.45;9.30;;;;;;;8.68;83.58;98592.36;1725832;82;21365;-81
2021/04/20 06:20:25;;;;;;;19.60;9.20;;;;;;;8.78;83.24;98590.37;1734101;82;21341;-81
2021/04/20 06:22:55;;;;;;;17.77;9.35;;;;;;;8.78;83.41;98598.61;1715697;82;21282;-81
2021/04/20 06:25:24;;;;;;;16.30;8.78;;;;;;;8.91;82.49;98592.19;1727829;82;21183;-80
2021/04/20 06:27:52;;;;;;;15.03;8.98;;;;;;;8.94;82.56;98601.20;1716442;81;21223;-83
2021/04/20 06:30:22;;;;;;;20.88;9.88;;;;;;;9.00;81.81;98595.01;1725710;81;21638;-78
2021/04/20 06:32:51;;;;;;;16.70;8.03;;;;;;;9.03;81.80;98603.56;1727619;81;21273;-83
2021/04/20 06:35:22;;;;;;;15.10;7.90;;;;;;;9.12;81.81;98605.05;1713660;81;21193;-81
2021/04/20 06:37:52;;;;;;;19.95;9.40;;;;;;;9.18;81.33;98596.25;1722012;82;21295;-80
2021/04/20 06:40:42;;;;;;;17.07;9.43;;;;;;;9.24;80.98;98603.86;1719703;82;21124;-80
2021/04/20 06:43:13;;;;;;;17.15;9.45;;;;;;;9.34;80.76;98598.81;1726003;82;21169;-84
2021/04/20 06:46:03;;;;;;;19.98;10.45;;;;;;;9.48;80.69;98599.27;1728687;81;21204;-77
2021/04/20 06:48:55;;;;;;;17.90;10.13;;;;;;;9.58;79.32;98599.02;1737112;82;21380;-79
2021/04/20 06:51:32;;;;;;;22.50;10.18;;;;;;;9.57;79.28;98598.17;1746131;80;21177;-77
2021/04/20 06:54:18;;;;;;;20.65;8.33;;;;;;;9.66;78.85;98599.64;1751796;80;21166;-79
2021/04/20 06:57:10;;;;;;;25.75;9.53;;;;;;;9.68;78.63;98589.61;1751026;80;21776;-78
2021/04/20 06:59:49;;;;;;;16.25;8.58;;;;;;;9.83;78.86;98597.83;1749735;80;21178;-79
2021/04/20 07:02:48;;;;;;;17.82;8.38;;;;;;;9.82;77.69;98590.50;1751452;80;21149;-79
2021/04/20 07:05:21;;;;;;;18.40;9.70;;;;;;;9.93;77.22;98601.42;1759082;80;21166;-79
2021/04/20 07:08:07;;;;;;;22.62;10.60;;;;;;;9.96;76.00;98596.11;1751074;80;21169;-79
2021/04/20 07:10:38;;;;;;;21.27;10.38;;;;;;;10.05;76.37;98603.25;1754123;80;21143;-80
2021/04/20 07:13:13;;;;;;;16.35;10.08;;;;;;;10.18;76.16;98594.61;1753858;80;21215;-79
2021/04/20 07:15:58;;;;;;;21.48;11.60;;;;;;;10.10;75.94;98581.41;1723606;82;21181;-81
2021/04/20 07:18:49;;;;;;;24.27;10.13;;;;;;;10.19;75.10;98589.84;1681881;84;21189;-78
2021/04/20 07:21:52;;;;;;;17.30;9.40;;;;;;;10.30;75.26;98595.55;1747632;80;21162;-78
2021/04/20 07:24:42;;;;;;;19.25;8.28;;;;;;;10.30;74.81;98601.59;1710121;80;21186;-80
2021/04/20 07:27:37;;;;;;;21.62;9.30;;;;;;;10.27;73.76;98595.17;1754338;80;21290;-80
2021/04/20 07:30:45;;;;;;;22.62;11.68;;;;;;;10.38;74.42;98594.85;1749030;80;21163;-80
2021/04/20 07:33:36;;;;;;;21.30;10.38;;;;;;;10.44;74.48;98599.84;1742949;80;21239;-80
2021/04/20 07:36:38;;;;;;;21.70;10.23;;;;;;;10.53;73.20;98596.95;1761294;80;21145;-81
2021/04/20 07:39:17;;;;;;;20.12;10.03;;;;;;;10.58;73.81;98594.66;1745353;80;21716;-78
2021/04/20 07:42:02;;;;;;;18.52;9.70;;;;;;;10.61;73.22;98594.11;1711776;82;21173;-82
2021/04/20 07:44:44;;;;;;;18.35;9.95;;;;;;;10.66;73.15;98596.55;1752025;77;21172;-85
2021/04/20 07:50:31;;;;;;;16.97;9.28;;;;;;;10.51;72.73;98599.22;1813120;77;21351;-94
2021/04/20 07:53:34;;;;;;;17.85;8.65;;;;;;;10.57;71.98;98596.88;1682998;84;21950;-94
2021/04/20 07:56:26;;;;;;;;;;;;;;;10.63;73.48;98590.16;1776090;80;21227;-91
2021/04/20 07:58:56;;;;;;;18.60;10.68;;;;;;;10.75;73.45;98602.29;1775662;77;20259;-84
2021/04/20 08:02:03;;;;;;;19.65;9.75;;;;;;;10.79;72.83;98598.30;1796909;79;21233;-81
2021/04/20 08:04:47;;;;;;;15.53;9.38;;;;;;;10.82;72.45;98591.68;1739622;78;21295;-91
2021/04/20 08:07:21;;;;;;;19.20;9.28;;;;;;;10.83;70.51;98604.63;1767229;80;21275;-85
2021/04/20 08:09:50;;;;;;;25.88;9.83;;;;;;;10.91;71.04;98596.58;1778630;80;21287;-80
2021/04/20 08:12:28;;;;;;;21.35;10.28;;;;;;;11.04;70.58;98605.66;1744379;81;21180;-83
2021/04/20 08:15:08;;;;;;;18.00;9.93;;;;;;;11.00;70.15;98602.77;1761580;80;21292;-83
2021/04/20 08:17:46;;;;;;;19.02;9.68;;;;;;;11.08;69.33;98608.55;1743898;80;21754;-81
2021/04/20 08:20:25;;;;;;;20.25;9.60;;;;;;;11.23;69.22;98599.80;1766752;80;21141;-84
2021/04/20 08:22:54;;;;;;;19.62;9.38;;;;;;;11.44;68.54;98604.67;1744192;78;21163;-85
2021/04/20 08:25:42;;;;;;;22.37;10.32;;;;;;;11.44;67.76;98605.55;1759215;80;21789;-89
2021/04/20 08:28:51;;;;;;;17.32;9.78;;;;;;;11.35;68.69;98594.16;1783070;79;21231;-87
2021/04/20 08:31:52;;;;;;;19.85;9.63;;;;;;;11.57;68.68;98596.81;1704526;80;21313;-88
2021/04/20 08:35:01;;;;;;;15.88;9.38;;;;;;;11.71;67.54;98603.66;1679409;80;21874;-88
2021/04/20 08:38:09;;;;;;;19.65;10.13;;;;;;;11.89;66.49;98595.62;1760650;78;21160;-85
2021/04/20 08:41:15;;;;;;;19.37;9.95;;;;;;;12.05;67.32;98597.19;1777005;80;21233;-87
2021/04/20 08:44:41;;;;;;;16.62;9.45;;;;;;;12.20;66.84;98587.09;1762301;80;21162;-85
2021/04/20 08:47:34;;;;;;;14.63;8.90;;;;;;;12.44;64.64;98595.22;1759443;81;21239;-85
2021/04/20 08:50:24;;;;;;;17.32;8.65;;;;;;;12.73;65.67;98586.63;1726498;81;21296;-80
2021/04/20 08:53:26;;;;;;;16.85;9.60;;;;;;;12.78;63.36;98590.37;1737343;81;21134;-83
2021/04/20 08:56:14;;;;;;;15.70;9.13;;;;;;;12.86;62.69;98590.89;1769745;81;21193;-80
2021/04/20 08:58:55;;;;;;;15.35;9.00;;;;;;;13.02;62.85;98593.23;1761346;81;21669;-82
2021/04/20 09:01:34;;;;;;;18.15;9.80;;;;;;;13.16;62.86;98582.20;1760379;80;21134;-81
2021/04/20 09:04:19;;;;;;;22.52;10.03;;;;;;;13.39;62.77;98593.41;1761705;81;21269;-83
2021/04/20 09:06:52;;;;;;;13.53;8.85;;;;;;;13.42;60.44;98598.51;1752853;81;21301;-87
2021/04/20 09:09:26;;;;;;;18.77;8.95;;;;;;;13.38;62.08;98589.95;1739865;79;21078;-86
2021/04/20 09:12:02;;;;;;;15.83;9.45;;;;;;;13.51;61.23;98589.80;1770258;79;21198;-88
2021/04/20 09:14:37;;;;;;;22.13;9.68;;;;;;;13.71;61.33;98598.04;1760753;80;21144;-83
2021/04/20 09:17:08;;;;;;;17.40;9.03;;;;;;;13.79;61.07;98602.92;1730225;81;22025;-83
2021/04/20 09:19:54;;;;;;;15.30;9.60;;;;;;;13.57;59.90;98589.13;1763300;81;21139;-80
2021/04/20 09:22:39;;;;;;;17.12;9.80;;;;;;;13.67;61.99;98599.09;1756934;81;21157;-78
2021/04/20 09:25:31;;;;;;;15.53;9.88;;;;;;;13.72;62.34;98602.33;1768653;81;21207;-81
2021/04/20 09:28:07;;;;;;;17.82;9.80;;;;;;;13.68;64.04;98602.55;1762339;81;21165;-83
2021/04/20 09:30:57;;;;;;;18.10;9.90;;;;;;;13.49;66.02;98603.86;1769437;80;21172;-80
2021/04/20 09:33:49;;;;;;;17.92;10.30;;;;;;;13.46;65.07;98600.06;1757421;81;21173;-78
2021/04/20 09:36:17;;;;;;;16.52;9.08;;;;;;;13.22;66.80;98594.14;1758591;80;21478;-77
2021/04/20 09:38:49;;;;;;;19.35;9.98;;;;;;;12.88;69.04;98591.21;1763448;80;21637;-76
2021/04/20 09:41:24;;;;;;;17.60;10.85;;;;;;;12.63;69.90;98602.28;1766898;80;21164;-76
2021/04/20 09:44:26;;;;;;;19.62;9.98;;;;;;;12.50;70.21;98600.64;1761885;81;21124;-78
2021/04/20 09:47:37;;;;;;;14.85;9.20;;;;;;;12.41;72.45;98597.09;1761070;80;21138;-77
2021/04/20 09:50:15;;;;;;;18.05;11.18;;;;;;;12.31;71.31;98600.09;1756069;81;21201;-77
2021/04/20 09:53:06;;;;;;;21.45;11.03;;;;;;;11.94;71.69;98597.61;1764188;81;21114;-77
2021/04/20 09:55:42;;;;;;;21.55;11.10;;;;;;;11.69;72.53;98607.23;1760688;81;21153;-76
2021/04/20 09:58:10;;;;;;;18.05;10.70;;;;;;;11.51;74.19;98604.86;1763532;81;21602;-79
2021/04/20 10:00:39;;;;;;;20.65;11.40;;;;;;;11.37;74.50;98607.95;1752842;81;21605;-79
2021/04/20 10:03:41;;;;;;;20.97;9.85;;;;;;;11.30;72.88;98609.95;1766424;80;21173;-78
2021/04/20 10:06:51;;;;;;;20.12;9.43;;;;;;;11.15;73.59;98615.22;1763572;81;21264;-81
2021/04/20 10:10:03;;;;;;;15.70;9.05;;;;;;;11.12;74.20;98620.55;1760029;81;21089;-78
2021/04/20 10:12:51;;;;;;;13.60;7.62;;;;;;;11.09;74.73;98625.84;1763891;81;21152;-79
2021/04/20 10:15:26;;;;;;;16.90;9.55;;;;;;;11.11;74.99;98624.04;1759693;81;21149;-78
2021/04/20 10:18:21;;;;;;;17.60;8.98;;;;;;;11.19;74.98;98622.47;1759002;81;21607;-79
2021/04/20 10:21:30;;;;;;;19.07;9.48;;;;;;;11.31;74.72;98619.43;1734999;82;21157;-76
2021/04/20 10:24:23;;;;;;;18.42;10.15;;;;;;;11.42;75.30;98618.19;1744566;81;21161;-76
2021/04/20 10:27:08;;;;;;;18.15;7.92;;;;;;;11.50;76.04;98617.49;1763005;81;22545;-80
2021/04/20 10:29:53;;;;;;;17.05;7.33;;;;;;;11.58;73.98;98609.38;1762356;81;21157;-81
2021/04/20 10:32:28;;;;;;;14.63;6.97;;;;;;;11.50;72.70;98617.49;1718008;81;21169;-92
2021/04/20 10:35:18;;;;;;;12.35;7.35;;;;;;;11.62;71.83;98617.03;1699391;83;21300;-91
2021/04/20 10:54:11;;;;;;;12.30;6.80;;;;;;;12.64;68.81;98617.03;1715704;83;21275;-93
2021/04/20 11:02:45;;;;;;;11.18;7.25;;;;;;;14.04;68.84;98605.69;1718648;83;21301;-92
2021/04/20 11:06:34;;;;;;;9.95;6.12;;;;;;;14.40;65.33;98605.69;1632523;87;21214;-86
2021/04/20 11:09:32;;;;;;;12.65;7.80;;;;;;;14.65;60.70;98605.84;1636292;88;21305;-88
2021/04/20 11:12:59;;;;;;;9.10;5.33;;;;;;;14.97;64.32;98609.45;1724521;79;21167;-87
2021/04/20 11:16:33;;;;;;;11.73;5.72;;;;;;;14.70;59.61;98603.39;1743047;82;21220;-88
2021/04/20 11:19:41;;;;;;;10.93;7.00;;;;;;;14.59;59.29;98618.76;1799113;78;21169;-86
2021/04/20 11:22:21;;;;;;;14.47;7.72;;;;;;;14.56;61.08;98618.89;1787772;80;21117;-86
2021/04/20 11:24:58;;;;;;;13.65;5.70;;;;;;;14.36;61.33;98616.38;1765652;80;21858;-86
2021/04/20 11:31:00;;;;;;;4.50;2.70;;;;;;;14.10;59.54;98620.61;1779766;80;21599;-84
2021/04/20 11:40:40;;;;;;;5.25;2.20;;;;;;;13.54;60.07;98612.31;1736541;81;21287;-93
2021/04/20 11:44:17;;;;;;;6.03;3.20;;;;;;;13.61;57.83;98617.66;1743847;82;21117;-86
2021/04/20 11:50:50;;;;;;;11.78;3.15;;;;;;;14.08;58.76;98609.38;1714689;78;21180;-95
2021/04/20 11:57:08;;;;;;;5.85;3.20;;;;;;;14.58;58.79;98615.74;1731872;82;21165;-88
2021/04/20 11:59:59;;;;;;;19.40;9.68;;;;;;;14.78;58.99;98606.94;1744418;80;21173;-85
2021/04/20 12:02:29;;;;;;;8.28;4.28;;;;;;;14.46;57.68;98606.72;1733752;81;21284;-85
2021/04/20 12:05:02;;;;;;;6.60;3.00;;;;;;;14.21;58.44;98610.12;1735833;81;21405;-85
2021/04/20 12:07:36;;;;;;;5.75;2.80;;;;;;;13.97;58.83;98609.05;1773637;80;21143;-83
2021/04/20 12:10:12;;;;;;;4.28;2.50;;;;;;;13.51;56.10;98606.78;1813521;78;21150;-85
2021/04/20 12:13:02;;;;;;;4.45;2.10;;;;;;;13.20;58.09;98598.58;1761711;79;21236;-85
2021/04/20 12:16:01;;;;;;;3.98;2.00;;;;;;;12.72;61.38;98596.69;1781969;79;21252;-79
2021/04/20 12:18:31;;;;;;;2.47;1.52;;;;;;;12.19;61.85;98586.22;1783129;79;21139;-85
2021/04/20 12:21:29;;;;;;;2.65;1.55;;;;;;;11.51;64.27;98586.63;1781436;78;21319;31
2021/04/20 12:27:38;;;;;;;2.95;1.37;;;;;;;10.89;65.48;98595.32;1692989;84;21275;-93
2021/04/20 12:37:03;;;;;;;5.67;2.45;;;;;;;11.05;66.27;98574.83;1766619;80;21275;-85
2021/04/20 12:40:21;;;;;;;3.72;1.80;;;;;;;11.17;65.41;98570.11;1785822;77;21319;-92
2021/04/20 12:43:25;;;;;;;2.72;1.60;;;;;;;11.31;64.43;98576.95;1848223;75;21267;-88
2021/04/20 12:46:52;;;;;;;4.10;1.80;;;;;;;11.50;66.74;98573.23;1802096;76;21161;-90
2021/04/20 12:50:01;;;;;;;4.85;2.10;;;;;;;11.64;65.16;98581.38;1747953;76;21183;-93
2021/04/20 12:59:07;;;;;;;5.53;2.60;;;;;;;12.63;63.39;98563.16;1814893;79;21313;-90
2021/04/20 13:02:27;;;;;;;9.08;2.85;;;;;;;12.91;61.61;98572.83;1772750;79;21153;-85
2021/04/20 13:05:11;;;;;;;5.72;3.20;;;;;;;13.14;61.74;98566.59;1799994;76;21416;-86
2021/04/20 13:08:43;;;;;;;4.15;2.52;;;;;;;13.45;61.13;98570.50;1793115;79;21123;-86
2021/04/20 13:15:23;;;;;;;6.60;2.75;;;;;;;13.82;60.46;98572.71;1756766;77;21184;-87
2021/04/20 13:18:06;;;;;;;5.03;2.70;;;;;;;14.06;58.29;98568.56;1798428;78;21197;-85
2021/04/20 13:21:08;;;;;;;6.70;2.42;;;;;;;14.17;58.32;98570.67;1806037;76;21220;-90
2021/04/20 13:24:27;;;;;;;6.35;2.98;;;;;;;14.18;56.65;98572.36;1653150;86;21255;-86
2021/04/20 13:27:20;;;;;;;;;;;;;;;14.05;57.69;98573.41;1702097;80;21134;-86